Buoy 41607

sailwx.info

Track history (hours):
 
Tides and Currents Weather Stations Pressure Air Temp Water Temp Dewpoint Dewpoint Depression Visibility Wind Speed Wind Dir Waves Ship Positions

Drifting buoy 41607

Last reported at 2014-Jul-28 03:00 UTC. Time now 2014-Jul-28 06:19 UTC.
Position N 23°21' W 048°36'.

Water temperature 27.1 ° C

Date/timePositionNaut miles runAvg speedWind from/ knotsBaromVisibWave heightAir tempDewpointWater temp
2014-Jul-28 03:00N 23°21' W 048°36'2 0.8 27.1
2014-Jul-28 01:00N 23°20' W 048°34'1 0.6 27.2
2014-Jul-27 23:00N 23°19' W 048°33'1 0.6 27.2
2014-Jul-27 21:00N 23°18' W 048°33'0 0.0 27.2
2014-Jul-27 19:00N 23°18' W 048°33'1 0.5 27.3
2014-Jul-27 18:00N 23°19' W 048°33'1 0.8 27.3
2014-Jul-27 17:00N 23°18' W 048°32'0 0.0 27.3
2014-Jul-27 16:00N 23°18' W 048°32'1 0.4 27.3
2014-Jul-27 14:00N 23°17' W 048°32'0 0.0 27.1
2014-Jul-27 12:00N 23°17' W 048°32'0 0.0 26.9
2014-Jul-27 11:00N 23°17' W 048°32'2 0.8 26.9
2014-Jul-27 09:00N 23°16' W 048°31'0 0.4 26.9
2014-Jul-27 08:00N 23°16' W 048°31'1 0.7 26.9
2014-Jul-27 07:00N 23°15' W 048°30'0 0.1 26.9
2014-Jul-27 06:00N 23°15' W 048°30'3 0.5 26.8
2014-Jul-27 01:00N 23°14' W 048°28'0 0.1 26.9
2014-Jul-27 00:00N 23°14' W 048°28'1 0.7 26.9
2014-Jul-26 23:00N 23°13' W 048°28'0 0.0 27.0
2014-Jul-26 22:00N 23°13' W 048°28'0 0.0 27.0
2014-Jul-26 21:00N 23°13' W 048°28'0 0.2 27.1
2014-Jul-26 20:00N 23°13' W 048°28'1 0.3 27.2
2014-Jul-26 18:00N 23°13' W 048°27'1 0.3 27.5
2014-Jul-26 15:00N 23°12' W 048°27'6 0.4 27.2
2014-Jul-26 01:00N 23°07' W 048°24'0 0.0 26.9
2014-Jul-25 21:00N 23°07' W 048°24'0 0.3 26.9
2014-Jul-25 20:00N 23°07' W 048°24'0 0.1 26.9
2014-Jul-25 18:00N 23°07' W 048°23'1 0.6 27.0
2014-Jul-25 16:00N 23°06' W 048°23'1 0.4 27.0
2014-Jul-25 13:00N 23°05' W 048°23'0 0.0 26.9
2014-Jul-25 12:00N 23°05' W 048°23'0 0.0 26.9
2014-Jul-25 10:00N 23°05' W 048°23'1 0.9 26.8
2014-Jul-25 09:00N 23°04' W 048°23'3 0.3 26.8
2014-Jul-25 01:00N 23°01' W 048°22'1 1.0 27.0
2014-Jul-25 00:00N 23°00' W 048°23'0 0.0 27.0
2014-Jul-24 21:00N 23°00' W 048°23'0 0.1 27.1
2014-Jul-24 20:00N 23°00' W 048°23'2 0.5 27.1
2014-Jul-24 16:00N 22°58' W 048°24'0 0.0 27.1
2014-Jul-24 14:00N 22°58' W 048°24'0 0.3 27.0
2014-Jul-24 13:00N 22°58' W 048°24'1 1.3 26.9
2014-Jul-24 12:00N 22°57' W 048°25'0 0.0 26.9
2014-Jul-24 11:00N 22°57' W 048°25'0 0.0 26.9
2014-Jul-24 10:00N 22°57' W 048°25'2 2.1 26.9
2014-Jul-24 09:00N 22°56' W 048°26'0 0.0 26.9
2014-Jul-24 07:00N 22°56' W 048°26'2 0.2 26.9
2014-Jul-24 00:00N 22°54' W 048°27'0 0.4 27.0
2014-Jul-23 23:00N 22°54' W 048°27'0 0.0 27.0
2014-Jul-23 22:00N 22°54' W 048°27'2 1.9 27.0
2014-Jul-23 21:00N 22°53' W 048°28'0 0.0 27.0
2014-Jul-23 19:00N 22°53' W 048°28'0 0.0 27.1
2014-Jul-23 18:00N 22°53' W 048°28'0 0.0 27.1
2014-Jul-23 17:00N 22°53' W 048°28'0 0.1 27.1
2014-Jul-23 16:00N 22°53' W 048°28'1 0.4 27.0
2014-Jul-23 13:00N 22°52' W 048°29'0 0.0 26.9
2014-Jul-23 12:00N 22°52' W 048°29'0 0.1 26.9
2014-Jul-23 09:00N 22°52' W 048°30'1 0.7 26.8
2014-Jul-23 07:00N 22°52' W 048°31'0 0.0 26.8
2014-Jul-23 06:00N 22°52' W 048°31'0 0.0 26.9
2014-Jul-23 04:00N 22°52' W 048°31'2 0.7 26.9
2014-Jul-23 01:00N 22°51' W 048°33'4 0.9 26.9
2014-Jul-22 21:00N 22°49' W 048°36'0 0.0 27.0
2014-Jul-22 19:00N 22°49' W 048°36'0 0.0 27.1
2014-Jul-22 17:00N 22°49' W 048°36'1 0.2 27.0
2014-Jul-22 14:00N 22°48' W 048°36'0 0.0 26.9
2014-Jul-22 11:00N 22°48' W 048°36'0 0.0 26.8
2014-Jul-22 10:00N 22°48' W 048°36'0 0.0 26.8
2014-Jul-22 09:00N 22°48' W 048°36'0 0.2 26.8
2014-Jul-22 07:00N 22°48' W 048°36'0 0.0 26.8
2014-Jul-22 06:00N 22°48' W 048°36'1 0.3 26.8
2014-Jul-22 04:00N 22°49' W 048°37'2 2.0 26.8
2014-Jul-22 03:00N 22°49' W 048°39'0 0.0 26.8
2014-Jul-22 01:00N 22°49' W 048°39'2 0.4 26.9
2014-Jul-21 21:00N 22°48' W 048°41'1 0.6 27.0
2014-Jul-21 20:00N 22°48' W 048°40'0 0.2 27.0
2014-Jul-21 18:00N 22°48' W 048°40'1 0.7 27.0
2014-Jul-21 17:00N 22°48' W 048°41'0 0.2 27.0
2014-Jul-21 15:00N 22°48' W 048°41'1 0.3 26.9
2014-Jul-21 13:00N 22°48' W 048°42'0 0.2 26.8
2014-Jul-21 12:00N 22°48' W 048°42'1 0.5 26.7
2014-Jul-21 10:00N 22°47' W 048°43'0 0.4 26.7
2014-Jul-21 09:00N 22°47' W 048°43'0 0.3 26.7
2014-Jul-21 08:00N 22°47' W 048°43'0 0.0 26.7
2014-Jul-21 07:00N 22°47' W 048°43'0 0.0 26.7
2014-Jul-21 05:00N 22°47' W 048°43'1 0.1 26.8
2014-Jul-21 01:00N 22°47' W 048°44'0 0.0 26.8
2014-Jul-21 00:00N 22°47' W 048°44'2 0.3 26.9
2014-Jul-20 19:00N 22°48' W 048°46'0 0.2 27.1
2014-Jul-20 17:00N 22°48' W 048°46'0 0.0 27.0
2014-Jul-20 15:00N 22°48' W 048°46'1 0.4 26.9
2014-Jul-20 12:00N 22°47' W 048°47'0 0.0 26.7
2014-Jul-20 09:00N 22°47' W 048°47'1 0.9 26.6
2014-Jul-20 08:00N 22°47' W 048°48'0 0.1 26.7
2014-Jul-20 03:00N 22°47' W 048°48'0 0.0 26.7
2014-Jul-20 01:00N 22°47' W 048°48'1 0.5 26.7
2014-Jul-19 23:00N 22°48' W 048°49'0 0.0 26.8
2014-Jul-19 22:00N 22°48' W 048°49'0 0.4 26.8
2014-Jul-19 21:00N 22°48' W 048°49'0 0.0 26.9
2014-Jul-19 20:00N 22°48' W 048°49'1 0.5 27.0
2014-Jul-19 18:00N 22°48' W 048°50'1 0.7 27.0
2014-Jul-19 17:00N 22°48' W 048°51'0 0.0 27.0
2014-Jul-19 15:00N 22°48' W 048°51'1 0.4 26.9
2014-Jul-19 12:00N 22°49' W 048°51'0 0.0 26.7
2014-Jul-19 11:00N 22°49' W 048°51'0 0.2 26.6
2014-Jul-19 09:00N 22°49' W 048°52'1 0.2 26.6
2014-Jul-19 06:00N 22°48' W 048°52'1 0.1 26.7
2014-Jul-19 00:00N 22°49' W 048°53'1 0.9 26.9
2014-Jul-18 23:00N 22°50' W 048°53'1 0.8 27.0
2014-Jul-18 22:00N 22°50' W 048°54'1 0.2 27.1
2014-Jul-18 19:00N 22°50' W 048°55'0 0.1 27.3
2014-Jul-18 18:00N 22°50' W 048°54'0 0.3 27.3
2014-Jul-18 17:00N 22°50' W 048°55'1 0.3 27.4
2014-Jul-18 12:00N 22°51' W 048°55'0 0.0 26.7
2014-Jul-18 11:00N 22°51' W 048°55'0 0.0 26.6
2014-Jul-18 09:00N 22°51' W 048°55'0 0.3 26.6
2014-Jul-18 08:00N 22°51' W 048°55'0 0.2 26.6
2014-Jul-18 06:00N 22°52' W 048°56'   26.6
Track history (hours):
 
Tides and Currents Weather Stations Pressure Air Temp Water Temp Dewpoint Dewpoint Depression Visibility Wind Speed Wind Dir Waves Ship Positions

Drifting buoy 41607

Last reported at 2014-Jul-28 03:00 UTC. Time now 2014-Jul-28 06:19 UTC.
Position N 23°21' W 048°36'.

Water temperature 27.1 ° C

Date/timePositionNaut miles runAvg speedWind from/ knotsBaromVisibWave heightAir tempDewpointWater temp
2014-Jul-28 03:00N 23°21' W 048°36'2 0.8 27.1
2014-Jul-28 01:00N 23°20' W 048°34'1 0.6 27.2
2014-Jul-27 23:00N 23°19' W 048°33'1 0.6 27.2
2014-Jul-27 21:00N 23°18' W 048°33'0 0.0 27.2
2014-Jul-27 19:00N 23°18' W 048°33'1 0.5 27.3
2014-Jul-27 18:00N 23°19' W 048°33'1 0.8 27.3
2014-Jul-27 17:00N 23°18' W 048°32'0 0.0 27.3
2014-Jul-27 16:00N 23°18' W 048°32'1 0.4 27.3
2014-Jul-27 14:00N 23°17' W 048°32'0 0.0 27.1
2014-Jul-27 12:00N 23°17' W 048°32'0 0.0 26.9
2014-Jul-27 11:00N 23°17' W 048°32'2 0.8 26.9
2014-Jul-27 09:00N 23°16' W 048°31'0 0.4 26.9
2014-Jul-27 08:00N 23°16' W 048°31'1 0.7 26.9
2014-Jul-27 07:00N 23°15' W 048°30'0 0.1 26.9
2014-Jul-27 06:00N 23°15' W 048°30'3 0.5 26.8
2014-Jul-27 01:00N 23°14' W 048°28'0 0.1 26.9
2014-Jul-27 00:00N 23°14' W 048°28'1 0.7 26.9
2014-Jul-26 23:00N 23°13' W 048°28'0 0.0 27.0
2014-Jul-26 22:00N 23°13' W 048°28'0 0.0 27.0
2014-Jul-26 21:00N 23°13' W 048°28'0 0.2 27.1
2014-Jul-26 20:00N 23°13' W 048°28'1 0.3 27.2
2014-Jul-26 18:00N 23°13' W 048°27'1 0.3 27.5
2014-Jul-26 15:00N 23°12' W 048°27'6 0.4 27.2
2014-Jul-26 01:00N 23°07' W 048°24'0 0.0 26.9
2014-Jul-25 21:00N 23°07' W 048°24'0 0.3 26.9
2014-Jul-25 20:00N 23°07' W 048°24'0 0.1 26.9
2014-Jul-25 18:00N 23°07' W 048°23'1 0.6 27.0
2014-Jul-25 16:00N 23°06' W 048°23'1 0.4 27.0
2014-Jul-25 13:00N 23°05' W 048°23'0 0.0 26.9
2014-Jul-25 12:00N 23°05' W 048°23'0 0.0 26.9
2014-Jul-25 10:00N 23°05' W 048°23'1 0.9 26.8
2014-Jul-25 09:00N 23°04' W 048°23'3 0.3 26.8
2014-Jul-25 01:00N 23°01' W 048°22'1 1.0 27.0
2014-Jul-25 00:00N 23°00' W 048°23'0 0.0 27.0
2014-Jul-24 21:00N 23°00' W 048°23'0 0.1 27.1
2014-Jul-24 20:00N 23°00' W 048°23'2 0.5 27.1
2014-Jul-24 16:00N 22°58' W 048°24'0 0.0 27.1
2014-Jul-24 14:00N 22°58' W 048°24'0 0.3 27.0
2014-Jul-24 13:00N 22°58' W 048°24'1 1.3 26.9
2014-Jul-24 12:00N 22°57' W 048°25'0 0.0 26.9
2014-Jul-24 11:00N 22°57' W 048°25'0 0.0 26.9
2014-Jul-24 10:00N 22°57' W 048°25'2 2.1 26.9
2014-Jul-24 09:00N 22°56' W 048°26'0 0.0 26.9
2014-Jul-24 07:00N 22°56' W 048°26'2 0.2 26.9
2014-Jul-24 00:00N 22°54' W 048°27'0 0.4 27.0
2014-Jul-23 23:00N 22°54' W 048°27'0 0.0 27.0
2014-Jul-23 22:00N 22°54' W 048°27'2 1.9 27.0
2014-Jul-23 21:00N 22°53' W 048°28'0 0.0 27.0
2014-Jul-23 19:00N 22°53' W 048°28'0 0.0 27.1
2014-Jul-23 18:00N 22°53' W 048°28'0 0.0 27.1
2014-Jul-23 17:00N 22°53' W 048°28'0 0.1 27.1
2014-Jul-23 16:00N 22°53' W 048°28'1 0.4 27.0
2014-Jul-23 13:00N 22°52' W 048°29'0 0.0 26.9
2014-Jul-23 12:00N 22°52' W 048°29'0 0.1 26.9
2014-Jul-23 09:00N 22°52' W 048°30'1 0.7 26.8
2014-Jul-23 07:00N 22°52' W 048°31'0 0.0 26.8
2014-Jul-23 06:00N 22°52' W 048°31'0 0.0 26.9
2014-Jul-23 04:00N 22°52' W 048°31'2 0.7 26.9
2014-Jul-23 01:00N 22°51' W 048°33'4 0.9 26.9
2014-Jul-22 21:00N 22°49' W 048°36'0 0.0 27.0
2014-Jul-22 19:00N 22°49' W 048°36'0 0.0 27.1
2014-Jul-22 17:00N 22°49' W 048°36'1 0.2 27.0
2014-Jul-22 14:00N 22°48' W 048°36'0 0.0 26.9
2014-Jul-22 11:00N 22°48' W 048°36'0 0.0 26.8
2014-Jul-22 10:00N 22°48' W 048°36'0 0.0 26.8
2014-Jul-22 09:00N 22°48' W 048°36'0 0.2 26.8
2014-Jul-22 07:00N 22°48' W 048°36'0 0.0 26.8
2014-Jul-22 06:00N 22°48' W 048°36'1 0.3 26.8
2014-Jul-22 04:00N 22°49' W 048°37'2 2.0 26.8
2014-Jul-22 03:00N 22°49' W 048°39'0 0.0 26.8
2014-Jul-22 01:00N 22°49' W 048°39'2 0.4 26.9
2014-Jul-21 21:00N 22°48' W 048°41'1 0.6 27.0
2014-Jul-21 20:00N 22°48' W 048°40'0 0.2 27.0
2014-Jul-21 18:00N 22°48' W 048°40'1 0.7 27.0
2014-Jul-21 17:00N 22°48' W 048°41'0 0.2 27.0
2014-Jul-21 15:00N 22°48' W 048°41'1 0.3 26.9
2014-Jul-21 13:00N 22°48' W 048°42'0 0.2 26.8
2014-Jul-21 12:00N 22°48' W 048°42'1 0.5 26.7
2014-Jul-21 10:00N 22°47' W 048°43'0 0.4 26.7
2014-Jul-21 09:00N 22°47' W 048°43'0 0.3 26.7
2014-Jul-21 08:00N 22°47' W 048°43'0 0.0 26.7
2014-Jul-21 07:00N 22°47' W 048°43'0 0.0 26.7
2014-Jul-21 05:00N 22°47' W 048°43'1 0.1 26.8
2014-Jul-21 01:00N 22°47' W 048°44'0 0.0 26.8
2014-Jul-21 00:00N 22°47' W 048°44'2 0.3 26.9
2014-Jul-20 19:00N 22°48' W 048°46'0 0.2 27.1
2014-Jul-20 17:00N 22°48' W 048°46'0 0.0 27.0
2014-Jul-20 15:00N 22°48' W 048°46'1 0.4 26.9
2014-Jul-20 12:00N 22°47' W 048°47'0 0.0 26.7
2014-Jul-20 09:00N 22°47' W 048°47'1 0.9 26.6
2014-Jul-20 08:00N 22°47' W 048°48'0 0.1 26.7
2014-Jul-20 03:00N 22°47' W 048°48'0 0.0 26.7
2014-Jul-20 01:00N 22°47' W 048°48'1 0.5 26.7
2014-Jul-19 23:00N 22°48' W 048°49'0 0.0 26.8
2014-Jul-19 22:00N 22°48' W 048°49'0 0.4 26.8
2014-Jul-19 21:00N 22°48' W 048°49'0 0.0 26.9
2014-Jul-19 20:00N 22°48' W 048°49'1 0.5 27.0
2014-Jul-19 18:00N 22°48' W 048°50'1 0.7 27.0
2014-Jul-19 17:00N 22°48' W 048°51'0 0.0 27.0
2014-Jul-19 15:00N 22°48' W 048°51'1 0.4 26.9
2014-Jul-19 12:00N 22°49' W 048°51'0 0.0 26.7
2014-Jul-19 11:00N 22°49' W 048°51'0 0.2 26.6
2014-Jul-19 09:00N 22°49' W 048°52'1 0.2 26.6
2014-Jul-19 06:00N 22°48' W 048°52'1 0.1 26.7
2014-Jul-19 00:00N 22°49' W 048°53'1 0.9 26.9
2014-Jul-18 23:00N 22°50' W 048°53'1 0.8 27.0
2014-Jul-18 22:00N 22°50' W 048°54'1 0.2 27.1
2014-Jul-18 19:00N 22°50' W 048°55'0 0.1 27.3
2014-Jul-18 18:00N 22°50' W 048°54'0 0.3 27.3
2014-Jul-18 17:00N 22°50' W 048°55'1 0.3 27.4
2014-Jul-18 12:00N 22°51' W 048°55'0 0.0 26.7
2014-Jul-18 11:00N 22°51' W 048°55'0 0.0 26.6
2014-Jul-18 09:00N 22°51' W 048°55'0 0.3 26.6
2014-Jul-18 08:00N 22°51' W 048°55'0 0.2 26.6
2014-Jul-18 06:00N 22°52' W 048°56'   26.6

Dump ship's entire track history